createdAt,value
2019-05-01T00:01:02.143Z,64.97
2019-05-01T00:03:48.214Z,61.67
2019-05-01T00:06:16.499Z,58.20
2019-05-01T00:08:42.819Z,53.93
2019-05-01T00:11:09.216Z,57.77
2019-05-01T00:13:35.406Z,66.43
2019-05-01T00:16:01.996Z,67.43
2019-05-01T00:18:28.339Z,77.20
2019-05-01T00:20:54.527Z,72.90
2019-05-01T00:23:20.779Z,77.67
2019-05-01T00:25:47.034Z,70.63
2019-05-01T00:28:13.751Z,74.07
2019-05-01T00:30:40.309Z,82.37
2019-05-01T00:33:06.556Z,78.63
2019-05-01T00:35:32.859Z,65.50
2019-05-01T00:37:59.226Z,72.07
2019-05-01T00:40:26.552Z,73.70
2019-05-01T00:42:52.794Z,74.73
2019-05-01T00:45:19.408Z,86.63
2019-05-01T00:47:45.541Z,79.53
2019-05-01T00:50:11.835Z,92.50
2019-05-01T00:52:37.960Z,96.23
2019-05-01T00:55:08.743Z,80.20
2019-05-01T00:57:36.866Z,87.87
2019-05-01T01:00:12.787Z,84.20
2019-05-01T01:02:40.995Z,85.30
2019-05-01T01:05:07.441Z,77.17
2019-05-01T01:07:33.827Z,78.73
2019-05-01T01:10:00.263Z,69.30
2019-05-01T01:12:26.450Z,66.20
2019-05-01T01:14:52.673Z,83.53
2019-05-01T01:17:18.990Z,112.67
2019-05-01T01:19:45.200Z,81.97
2019-05-01T01:22:11.307Z,100.07
2019-05-01T01:24:37.521Z,91.83
2019-05-01T01:27:03.722Z,104.20
2019-05-01T01:29:29.955Z,100.73
2019-05-01T01:31:56.241Z,80.80
2019-05-01T01:34:22.549Z,122.13
2019-05-01T01:36:48.876Z,89.97
2019-05-01T01:39:15.082Z,97.47
2019-05-01T01:41:41.537Z,106.10
2019-05-01T01:44:13.763Z,93.03
2019-05-01T01:46:42.460Z,83.03
2019-05-01T01:49:08.768Z,91.57
2019-05-01T01:51:35.190Z,100.43
2019-05-01T01:54:02.047Z,117.70
2019-05-01T01:56:28.360Z,105.93
2019-05-01T01:58:55.181Z,95.33
2019-05-01T02:01:24.669Z,99.70
2019-05-01T02:03:57.840Z,147.57
2019-05-01T02:06:24.179Z,107.03
2019-05-01T02:08:56.782Z,94.17
2019-05-01T02:11:18.897Z,87.40
2019-05-01T02:13:45.311Z,107.67
2019-05-01T02:16:11.477Z,78.73
2019-05-01T02:18:37.767Z,85.90
2019-05-01T02:21:04.096Z,162.00
2019-05-01T02:23:31.303Z,129.13
2019-05-01T02:25:57.604Z,136.63
2019-05-01T02:28:29.310Z,106.63
2019-05-01T02:31:27.249Z,96.07
2019-05-01T02:33:45.241Z,131.40
2019-05-01T02:36:13.993Z,89.97
2019-05-01T02:38:41.478Z,94.73
2019-05-01T02:41:10.922Z,118.30
2019-05-01T02:43:40.655Z,143.93
2019-05-01T02:46:10.270Z,100.13
2019-05-01T02:48:40.190Z,98.30
2019-05-01T02:51:07.364Z,105.73
2019-05-01T02:53:37.334Z,89.37
2019-05-01T02:56:13.111Z,90.53
2019-05-01T02:58:41.464Z,79.83
2019-05-01T03:01:07.775Z,89.30
2019-05-01T03:03:34.419Z,94.70
2019-05-01T03:06:01.125Z,112.17
2019-05-01T03:08:27.551Z,146.80
2019-05-01T03:10:53.918Z,130.10
2019-05-01T03:13:20.722Z,109.37
2019-05-01T03:15:47.236Z,103.87
2019-05-01T03:18:15.358Z,111.20
2019-05-01T03:20:53.699Z,108.07
2019-05-01T03:23:34.011Z,107.50
2019-05-01T03:26:00.443Z,105.23
2019-05-01T03:28:26.853Z,116.37
2019-05-01T03:30:53.611Z,121.53
2019-05-01T03:33:20.486Z,119.43
2019-05-01T03:35:47.003Z,105.30
2019-05-01T03:38:15.261Z,110.30
2019-05-01T03:40:41.615Z,119.17
2019-05-01T03:43:08.422Z,109.87
2019-05-01T03:45:35.122Z,112.27
2019-05-01T03:48:02.017Z,110.97
2019-05-01T03:50:28.342Z,118.03
2019-05-01T03:52:55.067Z,115.03
2019-05-01T03:55:21.291Z,116.93
2019-05-01T03:57:47.703Z,116.97
2019-05-01T04:00:31.302Z,127.20
2019-05-01T04:03:16.169Z,120.37
2019-05-01T04:05:42.984Z,131.63
2019-05-01T04:08:09.625Z,128.07
2019-05-01T04:10:36.289Z,129.10
2019-05-01T04:13:02.609Z,139.17
2019-05-01T04:15:28.947Z,134.07
2019-05-01T04:17:57.143Z,144.53
2019-05-01T04:20:23.639Z,147.33
2019-05-01T04:22:50.198Z,146.43
2019-05-01T04:25:16.715Z,153.63
2019-05-01T04:27:44.916Z,344.40
2019-05-01T04:30:13.214Z,196.93
2019-05-01T04:32:51.784Z,142.43
2019-05-01T04:35:19.746Z,142.87
2019-05-01T04:37:46.042Z,134.60
2019-05-01T04:40:12.387Z,125.43
2019-05-01T04:42:38.786Z,140.67
2019-05-01T04:45:05.101Z,142.40
2019-05-01T04:47:31.738Z,136.70
2019-05-01T04:49:58.943Z,144.60
2019-05-01T04:52:25.580Z,139.13
2019-05-01T04:54:52.200Z,244.27
2019-05-01T04:57:18.579Z,141.40
2019-05-01T04:59:45.129Z,134.27
2019-05-01T05:02:13.425Z,134.23
2019-05-01T05:04:40.627Z,129.50
2019-05-01T05:07:07.067Z,130.00
2019-05-01T05:09:46.627Z,123.77
2019-05-01T05:12:16.054Z,144.27
2019-05-01T05:14:44.894Z,125.70
2019-05-01T05:17:13.101Z,112.83
2019-05-01T05:19:39.388Z,127.40
2019-05-01T05:22:06.142Z,128.40
2019-05-01T05:24:32.474Z,111.70
2019-05-01T05:27:00.052Z,105.13
2019-05-01T05:29:27.423Z,109.60
2019-05-01T05:31:56.398Z,109.97
2019-05-01T05:34:25.324Z,104.93
2019-05-01T05:36:56.190Z,111.57
2019-05-01T05:39:26.330Z,102.30
2019-05-01T05:41:54.408Z,101.03
2019-05-01T05:44:21.641Z,97.73
2019-05-01T05:46:48.075Z,105.97
2019-05-01T05:49:14.416Z,107.47
2019-05-01T05:51:59.936Z,110.70
2019-05-01T05:54:30.719Z,111.50
2019-05-01T05:57:01.562Z,110.33
2019-05-01T05:59:38.427Z,115.00
2019-05-01T06:02:27.066Z,128.87
2019-05-01T06:05:14.394Z,125.90
2019-05-01T06:07:49.380Z,123.73
2019-05-01T06:10:23.259Z,122.57
2019-05-01T06:13:08.867Z,125.70
2019-05-01T06:15:41.141Z,122.63
2019-05-01T06:18:09.803Z,119.97
2019-05-01T06:20:40.819Z,123.03
2019-05-01T06:23:15.791Z,118.70
2019-05-01T06:25:44.154Z,138.87
2019-05-01T06:28:11.218Z,123.60
2019-05-01T06:30:37.471Z,131.97
2019-05-01T06:33:04.217Z,137.77
2019-05-01T06:35:33.997Z,125.97
2019-05-01T06:38:03.765Z,138.67
2019-05-01T06:40:40.549Z,130.10
2019-05-01T06:43:11.962Z,155.33
2019-05-01T06:45:40.886Z,138.30
2019-05-01T06:48:09.231Z,127.57
2019-05-01T06:50:41.585Z,123.37
2019-05-01T06:53:06.683Z,115.40
2019-05-01T06:55:33.795Z,109.53
2019-05-01T06:58:00.110Z,117.07
2019-05-01T07:00:26.542Z,119.00
2019-05-01T07:02:53.957Z,139.03
2019-05-01T07:05:21.808Z,119.33
2019-05-01T07:07:53.256Z,127.43
2019-05-01T07:10:29.498Z,119.13
2019-05-01T07:12:45.657Z,118.57
2019-05-01T07:15:12.652Z,112.37
2019-05-01T07:17:38.836Z,138.33
2019-05-01T07:20:18.171Z,126.73
2019-05-01T07:22:45.095Z,120.50
2019-05-01T07:25:11.431Z,117.77
2019-05-01T07:27:37.756Z,113.43
2019-05-01T07:30:11.582Z,128.37
2019-05-01T07:32:41.166Z,130.60
2019-05-01T07:35:07.445Z,134.10
2019-05-01T07:37:33.759Z,121.87
2019-05-01T07:40:00.176Z,124.93
2019-05-01T07:42:31.109Z,129.20
2019-05-01T07:45:03.944Z,118.43
2019-05-01T07:47:32.947Z,124.33
2019-05-01T07:50:03.081Z,123.20
2019-05-01T07:52:29.938Z,126.97
2019-05-01T07:54:56.480Z,125.30
2019-05-01T07:57:23.319Z,123.57
2019-05-01T07:59:49.900Z,125.87
2019-05-01T08:02:16.183Z,125.40
2019-05-01T08:04:42.625Z,125.90
2019-05-01T08:07:08.835Z,119.17
2019-05-01T08:09:35.215Z,127.03
2019-05-01T08:12:04.550Z,132.70
2019-05-01T08:14:30.766Z,150.90
2019-05-01T08:16:56.963Z,145.07
2019-05-01T08:19:34.737Z,136.87
2019-05-01T08:22:04.132Z,119.07
2019-05-01T08:24:30.546Z,120.23
2019-05-01T08:26:56.678Z,118.17
2019-05-01T08:29:41.867Z,117.83
2019-05-01T08:32:26.463Z,110.83
2019-05-01T08:34:55.757Z,109.93
2019-05-01T08:37:23.726Z,115.37
2019-05-01T08:39:50.659Z,111.10
2019-05-01T08:42:16.934Z,106.30
2019-05-01T08:45:04.925Z,106.37
2019-05-01T08:47:35.944Z,103.93
2019-05-01T08:50:06.876Z,99.20
2019-05-01T08:52:33.181Z,104.63
2019-05-01T08:54:59.469Z,105.23
2019-05-01T08:57:29.209Z,108.47
2019-05-01T08:59:55.782Z,104.60
2019-05-01T09:02:21.923Z,105.43
2019-05-01T09:04:48.260Z,98.63
2019-05-01T09:07:18.686Z,103.33
2019-05-01T09:09:45.499Z,107.53
2019-05-01T09:12:11.918Z,101.27
2019-05-01T09:14:39.001Z,110.50
2019-05-01T09:17:05.335Z,111.93
2019-05-01T09:19:31.532Z,105.37
2019-05-01T09:21:57.823Z,112.57
2019-05-01T09:24:28.020Z,114.30
2019-05-01T09:26:59.918Z,113.13
2019-05-01T09:29:28.248Z,116.27
2019-05-01T09:31:54.684Z,112.00
2019-05-01T09:34:21.136Z,103.93
2019-05-01T09:36:48.657Z,102.67
2019-05-01T09:39:16.631Z,102.03
2019-05-01T09:41:46.866Z,103.53
2019-05-01T09:44:12.148Z,96.37
2019-05-01T09:46:39.078Z,101.37
2019-05-01T09:49:05.627Z,100.67
2019-05-01T09:51:52.287Z,100.57
2019-05-01T09:54:23.947Z,92.17
2019-05-01T09:56:50.398Z,90.63
2019-05-01T09:59:17.525Z,93.60
2019-05-01T10:01:45.030Z,92.20
2019-05-01T10:04:11.379Z,87.43
2019-05-01T10:06:37.677Z,86.43
2019-05-01T10:09:06.403Z,81.80
2019-05-01T10:11:35.942Z,81.17
2019-05-01T10:14:04.245Z,82.50
2019-05-01T10:16:30.507Z,81.00
2019-05-01T10:18:56.825Z,79.63
2019-05-01T10:21:27.294Z,79.33
2019-05-01T10:23:51.692Z,79.80
2019-05-01T10:26:24.039Z,84.20
2019-05-01T10:29:07.943Z,77.23
2019-05-01T10:31:51.292Z,77.80
2019-05-01T10:34:31.319Z,76.47
2019-05-01T10:36:57.440Z,76.83
2019-05-01T10:39:23.666Z,77.70
2019-05-01T10:41:49.940Z,79.77
2019-05-01T10:44:16.181Z,74.30
2019-05-01T10:46:42.390Z,75.30
2019-05-01T10:49:08.657Z,82.17
2019-05-01T10:51:34.988Z,69.87
2019-05-01T10:54:01.413Z,69.17
2019-05-01T10:56:27.648Z,72.93
2019-05-01T10:58:54.103Z,70.13
2019-05-01T11:01:22.323Z,72.30
2019-05-01T11:03:48.582Z,71.10
2019-05-01T11:06:14.888Z,71.17
2019-05-01T11:08:41.061Z,71.23
2019-05-01T11:11:07.189Z,64.37
2019-05-01T11:13:33.599Z,64.70
2019-05-01T11:16:01.149Z,65.40
2019-05-01T11:18:27.515Z,61.33
2019-05-01T11:20:53.752Z,66.53
2019-05-01T11:23:20.101Z,68.27
2019-05-01T11:25:46.433Z,66.33
2019-05-01T11:28:12.772Z,66.47
2019-05-01T11:30:39.204Z,65.73
2019-05-01T11:33:13.336Z,66.53
2019-05-01T11:35:53.681Z,66.50
2019-05-01T11:38:40.134Z,66.03
2019-05-01T11:41:23.454Z,65.53
2019-05-01T11:43:49.830Z,61.57
2019-05-01T11:46:16.109Z,63.90
2019-05-01T11:48:44.493Z,61.63
2019-05-01T11:51:10.509Z,63.33
2019-05-01T11:53:36.858Z,63.13
2019-05-01T11:56:03.217Z,63.70
2019-05-01T11:58:29.513Z,65.67
2019-05-01T12:00:57.764Z,62.43
2019-05-01T12:03:24.052Z,62.27
2019-05-01T12:05:50.152Z,60.57
2019-05-01T12:08:16.287Z,59.00
2019-05-01T12:10:43.373Z,59.47
2019-05-01T12:13:09.569Z,59.23
2019-05-01T12:15:35.701Z,65.40
2019-05-01T12:18:01.844Z,58.83
2019-05-01T12:20:28.188Z,59.40
2019-05-01T12:22:54.414Z,62.80
2019-05-01T12:25:20.625Z,60.73
2019-05-01T12:27:46.796Z,58.80
2019-05-01T12:30:15.303Z,57.90
2019-05-01T12:32:41.651Z,60.33
2019-05-01T12:35:08.063Z,60.77
2019-05-01T12:37:38.814Z,57.80
2019-05-01T12:40:08.054Z,60.87
2019-05-01T12:42:34.480Z,62.47
2019-05-01T12:45:00.681Z,61.63
2019-05-01T12:47:31.717Z,57.50
2019-05-01T12:49:57.930Z,59.83
2019-05-01T12:52:42.640Z,60.23
2019-05-01T12:55:13.913Z,62.00
2019-05-01T12:57:40.472Z,56.90
2019-05-01T13:00:09.488Z,55.37
2019-05-01T13:02:35.791Z,58.47
2019-05-01T13:05:05.978Z,60.57
2019-05-01T13:07:33.053Z,60.70
2019-05-01T13:09:59.465Z,63.53
2019-05-01T13:12:25.811Z,58.73
2019-05-01T13:14:51.928Z,59.90
2019-05-01T13:17:18.173Z,60.83
2019-05-01T13:19:44.405Z,59.00
2019-05-01T13:22:10.915Z,58.77
2019-05-01T13:24:40.059Z,57.83
2019-05-01T13:27:10.827Z,58.77
2019-05-01T13:29:41.848Z,58.93
2019-05-01T13:32:12.807Z,62.70
2019-05-01T13:34:39.002Z,62.43
2019-05-01T13:37:05.483Z,63.97
2019-05-01T13:39:31.698Z,59.73
2019-05-01T13:41:57.983Z,62.33
2019-05-01T13:44:24.199Z,58.47
2019-05-01T13:46:50.710Z,59.83
2019-05-01T13:49:17.076Z,59.60
2019-05-01T13:51:43.320Z,61.43
2019-05-01T13:54:10.018Z,59.37
2019-05-01T13:56:36.321Z,60.87
2019-05-01T13:59:03.545Z,60.20
2019-05-01T14:01:29.902Z,59.73
2019-05-01T14:03:56.142Z,58.70
2019-05-01T14:06:22.404Z,57.90
2019-05-01T14:08:48.646Z,60.13
2019-05-01T14:11:15.047Z,63.17
2019-05-01T14:13:41.523Z,62.17
2019-05-01T14:16:07.762Z,61.17
2019-05-01T14:18:34.492Z,62.33
2019-05-01T14:21:14.676Z,60.63
2019-05-01T14:23:57.770Z,60.73
2019-05-01T14:26:24.120Z,62.10
2019-05-01T14:28:50.348Z,68.93
2019-05-01T14:31:16.679Z,64.33
2019-05-01T14:33:42.785Z,62.30
2019-05-01T14:36:09.094Z,62.77
2019-05-01T14:38:35.466Z,64.03
2019-05-01T14:41:01.655Z,62.80
2019-05-01T14:43:29.799Z,61.93
2019-05-01T14:45:56.151Z,62.33
2019-05-01T14:48:22.478Z,63.20
2019-05-01T14:50:48.730Z,59.07
2019-05-01T14:53:15.024Z,63.93
2019-05-01T14:55:41.456Z,62.17
2019-05-01T14:58:07.948Z,61.97
2019-05-01T15:00:34.282Z,58.53
2019-05-01T15:03:00.475Z,56.13
2019-05-01T15:05:27.034Z,59.67
2019-05-01T15:07:53.265Z,60.23
2019-05-01T15:10:19.789Z,54.87
2019-05-01T15:12:47.877Z,58.77
2019-05-01T15:15:18.722Z,59.23
2019-05-01T15:17:49.714Z,64.90
2019-05-01T15:20:16.171Z,58.67
2019-05-01T15:22:42.496Z,58.10
2019-05-01T15:25:08.950Z,51.57
2019-05-01T15:27:35.301Z,54.37
2019-05-01T15:30:05.071Z,55.30
2019-05-01T15:32:31.513Z,56.73
2019-05-01T15:34:57.725Z,54.33
2019-05-01T15:37:23.959Z,59.10
2019-05-01T15:39:52.067Z,58.80
2019-05-01T15:42:20.151Z,57.27
2019-05-01T15:44:47.817Z,56.20
2019-05-01T15:47:14.610Z,57.40
2019-05-01T15:49:41.304Z,56.87
2019-05-01T15:52:07.506Z,55.00
2019-05-01T15:54:33.792Z,51.87
2019-05-01T15:57:00.414Z,54.27
2019-05-01T15:59:26.527Z,53.27
2019-05-01T16:01:52.838Z,51.50
2019-05-01T16:04:19.235Z,54.27
2019-05-01T16:06:45.589Z,52.10
2019-05-01T16:09:12.045Z,52.57
2019-05-01T16:11:56.803Z,52.23
2019-05-01T16:14:26.345Z,52.20
2019-05-01T16:16:52.941Z,51.37
2019-05-01T16:19:19.259Z,53.47
2019-05-01T16:21:45.933Z,49.40
2019-05-01T16:24:12.144Z,51.23
2019-05-01T16:26:38.273Z,49.67
2019-05-01T16:29:04.459Z,51.43
2019-05-01T16:31:30.593Z,55.70
2019-05-01T16:33:56.797Z,54.00
2019-05-01T16:36:23.245Z,53.27
2019-05-01T16:38:55.533Z,51.50
2019-05-01T16:41:21.805Z,52.10
2019-05-01T16:43:48.095Z,56.13
2019-05-01T16:46:14.454Z,55.13
2019-05-01T16:48:40.681Z,55.20
2019-05-01T16:51:06.889Z,56.43
2019-05-01T16:53:33.246Z,53.30
2019-05-01T16:55:59.430Z,57.03
2019-05-01T16:58:25.887Z,54.20
2019-05-01T17:00:59.347Z,52.30
2019-05-01T17:03:27.698Z,50.13
2019-05-01T17:05:58.485Z,51.87
2019-05-01T17:08:36.038Z,57.67
2019-05-01T17:10:54.896Z,54.30
2019-05-01T17:13:21.014Z,53.47
2019-05-01T17:15:50.223Z,55.30
2019-05-01T17:18:16.770Z,53.20
2019-05-01T17:20:42.994Z,51.03
2019-05-01T17:23:09.432Z,50.70
2019-05-01T17:25:35.645Z,51.63
2019-05-01T17:28:02.942Z,51.07
2019-05-01T17:30:38.969Z,53.47
2019-05-01T17:33:06.496Z,53.30
2019-05-01T17:35:36.888Z,54.20
2019-05-01T17:38:00.928Z,47.90
2019-05-01T17:40:27.406Z,51.50
2019-05-01T17:42:53.527Z,49.90
2019-05-01T17:45:19.997Z,50.10
2019-05-01T17:47:46.219Z,52.07
2019-05-01T17:50:16.408Z,50.40
2019-05-01T17:52:40.928Z,51.17
2019-05-01T17:55:07.462Z,57.10
2019-05-01T17:57:34.031Z,51.43
2019-05-01T18:00:02.132Z,56.10
2019-05-01T18:02:30.539Z,52.80
2019-05-01T18:05:15.222Z,53.00
2019-05-01T18:07:41.504Z,51.67
2019-05-01T18:10:08.135Z,47.80
2019-05-01T18:12:34.564Z,52.77
2019-05-01T18:15:01.124Z,51.20
2019-05-01T18:17:27.341Z,49.57
2019-05-01T18:19:53.703Z,54.47
2019-05-01T18:22:38.827Z,54.57
2019-05-01T18:25:10.272Z,53.70
2019-05-01T18:27:55.682Z,51.33
2019-05-01T18:30:24.083Z,51.50
2019-05-01T18:32:52.456Z,54.50
2019-05-01T18:35:18.532Z,53.70
2019-05-01T18:37:49.654Z,58.73
2019-05-01T18:40:20.731Z,56.23
2019-05-01T18:42:47.019Z,54.47
2019-05-01T18:45:33.552Z,55.20
2019-05-01T18:47:59.975Z,56.10
2019-05-01T18:50:26.156Z,62.93
2019-05-01T18:52:52.279Z,57.93
2019-05-01T18:55:18.571Z,54.60
2019-05-01T18:57:44.958Z,57.03
2019-05-01T19:00:11.443Z,59.73
2019-05-01T19:02:39.060Z,58.33
2019-05-01T19:05:08.752Z,57.67
2019-05-01T19:07:33.918Z,61.70
2019-05-01T19:10:00.376Z,59.20
2019-05-01T19:12:26.744Z,62.97
2019-05-01T19:14:52.976Z,58.67
2019-05-01T19:17:19.326Z,61.10
2019-05-01T19:19:45.552Z,60.87
2019-05-01T19:22:11.800Z,66.63
2019-05-01T19:24:40.073Z,63.23
2019-05-01T19:27:06.660Z,66.23
2019-05-01T19:29:33.879Z,62.40
2019-05-01T19:32:00.094Z,63.10
2019-05-01T19:34:26.436Z,64.53
2019-05-01T19:36:53.176Z,67.60
2019-05-01T19:39:19.661Z,66.00
2019-05-01T19:41:49.257Z,66.63
2019-05-01T19:44:18.722Z,63.83
2019-05-01T19:46:42.343Z,66.77
2019-05-01T19:49:08.801Z,72.03
2019-05-01T19:51:35.297Z,66.97
2019-05-01T19:54:01.623Z,67.73
2019-05-01T19:56:28.952Z,66.77
2019-05-01T19:58:55.339Z,64.57
2019-05-01T20:01:21.741Z,66.77
2019-05-01T20:03:48.083Z,71.07
2019-05-01T20:06:14.526Z,71.27
2019-05-01T20:08:40.878Z,73.87
2019-05-01T20:11:09.511Z,70.73
2019-05-01T20:13:35.539Z,74.57
2019-05-01T20:16:01.910Z,73.93
2019-05-01T20:18:29.261Z,77.17
2019-05-01T20:20:55.687Z,74.77
2019-05-01T20:23:26.214Z,81.47
2019-05-01T20:25:51.079Z,78.37
2019-05-01T20:28:20.489Z,85.47
2019-05-01T20:30:49.559Z,77.03
2019-05-01T20:33:16.117Z,81.83
2019-05-01T20:35:42.472Z,78.43
2019-05-01T20:38:08.799Z,80.80
2019-05-01T20:40:35.138Z,81.20
2019-05-01T20:43:05.938Z,74.67
2019-05-01T20:45:29.587Z,78.07
2019-05-01T20:47:55.890Z,82.33
2019-05-01T20:50:22.146Z,76.70
2019-05-01T20:52:49.512Z,76.23
2019-05-01T20:55:15.831Z,80.93
2019-05-01T20:57:47.174Z,79.87
2019-05-01T21:00:16.954Z,76.20
2019-05-01T21:02:44.656Z,83.23
2019-05-01T21:05:30.714Z,80.37
2019-05-01T21:08:04.514Z,77.37
2019-05-01T21:10:34.408Z,71.77
2019-05-01T21:13:00.820Z,87.17
2019-05-01T21:15:27.056Z,86.37
2019-05-01T21:17:53.345Z,95.07
2019-05-01T21:20:19.674Z,78.93
2019-05-01T21:22:45.817Z,83.60
2019-05-01T21:25:13.803Z,87.73
2019-05-01T21:27:40.219Z,82.77
2019-05-01T21:30:06.637Z,83.97
2019-05-01T21:32:33.953Z,86.33
2019-05-01T21:35:00.229Z,87.30
2019-05-01T21:37:26.346Z,89.27
2019-05-01T21:39:53.793Z,85.67
2019-05-01T21:42:20.059Z,91.43
2019-05-01T21:44:46.277Z,84.87
2019-05-01T21:47:13.921Z,86.07
2019-05-01T21:49:42.823Z,90.87
2019-05-01T21:52:08.917Z,99.23
2019-05-01T21:54:35.054Z,101.10
2019-05-01T21:57:01.283Z,106.87
2019-05-01T21:59:27.684Z,103.60
2019-05-01T22:01:53.879Z,103.07
2019-05-01T22:04:20.242Z,94.40
2019-05-01T22:06:51.374Z,112.30
2019-05-01T22:09:16.658Z,104.50
2019-05-01T22:11:43.337Z,91.50
2019-05-01T22:14:11.499Z,83.50
2019-05-01T22:16:37.959Z,91.67
2019-05-01T22:19:11.690Z,104.70
2019-05-01T22:21:40.919Z,100.87
2019-05-01T22:24:20.955Z,97.83
2019-05-01T22:26:55.023Z,85.57
2019-05-01T22:29:27.316Z,82.47
2019-05-01T22:31:58.983Z,80.43
2019-05-01T22:34:32.747Z,88.67
2019-05-01T22:36:59.063Z,81.20
2019-05-01T22:39:28.880Z,79.93
2019-05-01T22:41:55.168Z,73.00
2019-05-01T22:44:22.695Z,73.20
2019-05-01T22:46:48.986Z,67.93
2019-05-01T22:49:15.210Z,70.03
2019-05-01T22:51:41.525Z,70.67
2019-05-01T22:54:07.811Z,70.73
2019-05-01T22:56:34.059Z,69.50
2019-05-01T22:59:00.256Z,71.50
2019-05-01T23:01:26.882Z,67.03
2019-05-01T23:03:55.093Z,70.40
2019-05-01T23:06:21.542Z,70.90
2019-05-01T23:08:47.741Z,67.90
2019-05-01T23:11:20.235Z,67.17
2019-05-01T23:13:42.989Z,69.07
2019-05-01T23:16:09.398Z,62.97
2019-05-01T23:18:35.703Z,66.30
2019-05-01T23:21:02.498Z,65.70
2019-05-01T23:23:28.639Z,64.20
2019-05-01T23:25:54.724Z,64.10
2019-05-01T23:28:21.044Z,65.97
2019-05-01T23:30:47.249Z,64.70
2019-05-01T23:33:13.443Z,61.20
2019-05-01T23:35:39.547Z,60.67
2019-05-01T23:38:05.767Z,67.33
2019-05-01T23:40:32.076Z,64.77
2019-05-01T23:42:58.283Z,67.70
2019-05-01T23:45:24.592Z,76.43
2019-05-01T23:47:50.792Z,67.40
2019-05-01T23:50:17.123Z,77.40
2019-05-01T23:52:43.323Z,65.60
2019-05-01T23:55:10.051Z,66.40
2019-05-01T23:57:36.170Z,63.53
